sensor_id;sensor_type;location;lat;lon;timestamp;temperature;humidity
52439;DHT22;38359;53.150;6.504;2023-04-24T00:01:50;12.50;99.90
52439;DHT22;38359;53.150;6.504;2023-04-24T00:12:17;12.50;99.90
52439;DHT22;38359;53.150;6.504;2023-04-24T00:22:42;12.30;99.90
52439;DHT22;38359;53.150;6.504;2023-04-24T00:33:08;12.30;99.90
52439;DHT22;38359;53.150;6.504;2023-04-24T00:43:34;12.20;99.90
52439;DHT22;38359;53.150;6.504;2023-04-24T00:54:01;12.10;99.90
52439;DHT22;38359;53.150;6.504;2023-04-24T01:04:27;11.80;99.90
52439;DHT22;38359;53.150;6.504;2023-04-24T01:14:52;11.70;99.90
52439;DHT22;38359;53.150;6.504;2023-04-24T01:25:18;11.80;99.90
52439;DHT22;38359;53.150;6.504;2023-04-24T01:35:44;11.60;99.90
52439;DHT22;38359;53.150;6.504;2023-04-24T01:46:10;11.60;99.90
52439;DHT22;38359;53.150;6.504;2023-04-24T01:56:36;11.50;99.90
52439;DHT22;38359;53.150;6.504;2023-04-24T02:07:06;11.30;99.90
52439;DHT22;38359;53.150;6.504;2023-04-24T02:17:31;11.30;99.90
52439;DHT22;38359;53.150;6.504;2023-04-24T02:27:58;11.30;99.90
52439;DHT22;38359;53.150;6.504;2023-04-24T02:38:24;11.30;99.90
52439;DHT22;38359;53.150;6.504;2023-04-24T02:48:50;11.30;99.90
52439;DHT22;38359;53.150;6.504;2023-04-24T02:59:16;11.30;99.90
52439;DHT22;38359;53.150;6.504;2023-04-24T03:09:45;11.50;99.90
52439;DHT22;38359;53.150;6.504;2023-04-24T03:20:11;11.50;99.90
52439;DHT22;38359;53.150;6.504;2023-04-24T03:30:37;11.60;99.90
52439;DHT22;38359;53.150;6.504;2023-04-24T03:41:03;11.50;99.90
52439;DHT22;38359;53.150;6.504;2023-04-24T03:51:29;11.50;99.90
52439;DHT22;38359;53.150;6.504;2023-04-24T04:01:56;11.40;99.90
52439;DHT22;38359;53.150;6.504;2023-04-24T04:12:22;11.60;99.90
52439;DHT22;38359;53.150;6.504;2023-04-24T04:22:48;11.50;99.90
52439;DHT22;38359;53.150;6.504;2023-04-24T04:33:14;11.40;99.90
52439;DHT22;38359;53.150;6.504;2023-04-24T04:43:39;11.90;99.90
52439;DHT22;38359;53.150;6.504;2023-04-24T04:54:07;11.50;99.90
52439;DHT22;38359;53.150;6.504;2023-04-24T05:04:33;11.30;99.90
52439;DHT22;38359;53.150;6.504;2023-04-24T05:14:58;11.70;99.90
52439;DHT22;38359;53.150;6.504;2023-04-24T05:25:24;11.50;99.90
52439;DHT22;38359;53.150;6.504;2023-04-24T05:35:50;11.70;99.90
52439;DHT22;38359;53.150;6.504;2023-04-24T05:46:16;11.70;99.90
52439;DHT22;38359;53.150;6.504;2023-04-24T05:56:42;11.70;99.90
52439;DHT22;38359;53.150;6.504;2023-04-24T06:07:08;11.40;99.90
52439;DHT22;38359;53.150;6.504;2023-04-24T06:17:34;11.40;99.90
52439;DHT22;38359;53.150;6.504;2023-04-24T06:27:59;11.30;99.90
52439;DHT22;38359;53.150;6.504;2023-04-24T06:38:27;11.40;99.90
52439;DHT22;38359;53.150;6.504;2023-04-24T06:48:54;11.30;99.90
52439;DHT22;38359;53.150;6.504;2023-04-24T06:59:24;11.30;99.90
52439;DHT22;38359;53.150;6.504;2023-04-24T07:09:50;11.20;99.90
52439;DHT22;38359;53.150;6.504;2023-04-24T07:20:16;11.30;99.90
52439;DHT22;38359;53.150;6.504;2023-04-24T07:30:41;11.10;99.90
52439;DHT22;38359;53.150;6.504;2023-04-24T07:41:07;10.90;99.90
52439;DHT22;38359;53.150;6.504;2023-04-24T07:51:33;11.00;99.90
52439;DHT22;38359;53.150;6.504;2023-04-24T08:02:03;10.80;99.90
52439;DHT22;38359;53.150;6.504;2023-04-24T08:12:29;10.40;99.90
52439;DHT22;38359;53.150;6.504;2023-04-24T08:23:01;10.30;99.90
52439;DHT22;38359;53.150;6.504;2023-04-24T08:33:26;10.10;99.90
52439;DHT22;38359;53.150;6.504;2023-04-24T08:43:53;10.00;99.90
52439;DHT22;38359;53.150;6.504;2023-04-24T08:54:23;10.00;99.90
52439;DHT22;38359;53.150;6.504;2023-04-24T09:04:50;9.60;99.90
52439;DHT22;38359;53.150;6.504;2023-04-24T09:15:17;9.70;99.90
52439;DHT22;38359;53.150;6.504;2023-04-24T09:25:44;9.60;99.90
52439;DHT22;38359;53.150;6.504;2023-04-24T09:36:10;9.70;99.90
52439;DHT22;38359;53.150;6.504;2023-04-24T09:46:36;9.60;99.90
52439;DHT22;38359;53.150;6.504;2023-04-24T09:57:02;9.70;99.90
52439;DHT22;38359;53.150;6.504;2023-04-24T10:07:28;9.90;99.90
52439;DHT22;38359;53.150;6.504;2023-04-24T10:17:54;10.00;99.90
52439;DHT22;38359;53.150;6.504;2023-04-24T10:28:20;10.20;99.90
52439;DHT22;38359;53.150;6.504;2023-04-24T10:38:47;10.30;99.90
52439;DHT22;38359;53.150;6.504;2023-04-24T10:49:14;10.20;99.90
52439;DHT22;38359;53.150;6.504;2023-04-24T10:59:40;10.20;99.90
52439;DHT22;38359;53.150;6.504;2023-04-24T11:10:06;10.50;99.90
52439;DHT22;38359;53.150;6.504;2023-04-24T11:20:32;10.10;99.90
52439;DHT22;38359;53.150;6.504;2023-04-24T11:30:58;10.00;99.90
52439;DHT22;38359;53.150;6.504;2023-04-24T11:41:24;10.00;99.90
52439;DHT22;38359;53.150;6.504;2023-04-24T11:51:55;10.00;99.90
52439;DHT22;38359;53.150;6.504;2023-04-24T12:02:25;9.90;99.90
52439;DHT22;38359;53.150;6.504;2023-04-24T12:12:52;9.60;99.90
52439;DHT22;38359;53.150;6.504;2023-04-24T12:23:34;9.10;99.90
52439;DHT22;38359;53.150;6.504;2023-04-24T12:34:03;9.70;99.90
52439;DHT22;38359;53.150;6.504;2023-04-24T12:44:37;9.80;99.90
52439;DHT22;38359;53.150;6.504;2023-04-24T12:55:03;9.80;99.90
52439;DHT22;38359;53.150;6.504;2023-04-24T13:05:30;9.90;99.90
52439;DHT22;38359;53.150;6.504;2023-04-24T13:15:56;9.60;99.90
52439;DHT22;38359;53.150;6.504;2023-04-24T13:26:22;10.10;99.90
52439;DHT22;38359;53.150;6.504;2023-04-24T13:36:48;10.10;99.90
52439;DHT22;38359;53.150;6.504;2023-04-24T13:47:15;10.40;99.90
52439;DHT22;38359;53.150;6.504;2023-04-24T13:57:41;9.90;99.90
52439;DHT22;38359;53.150;6.504;2023-04-24T14:08:07;9.80;99.90
52439;DHT22;38359;53.150;6.504;2023-04-24T14:18:32;9.60;99.90
52439;DHT22;38359;53.150;6.504;2023-04-24T14:28:59;9.30;99.90
52439;DHT22;38359;53.150;6.504;2023-04-24T14:39:25;9.30;99.90
52439;DHT22;38359;53.150;6.504;2023-04-24T14:49:51;9.40;99.90
52439;DHT22;38359;53.150;6.504;2023-04-24T15:00:17;9.70;99.90
52439;DHT22;38359;53.150;6.504;2023-04-24T15:10:44;9.40;99.90
52439;DHT22;38359;53.150;6.504;2023-04-24T15:21:10;9.80;99.90
52439;DHT22;38359;53.150;6.504;2023-04-24T15:31:37;9.40;99.90
52439;DHT22;38359;53.150;6.504;2023-04-24T15:42:05;9.50;99.90
52439;DHT22;38359;53.150;6.504;2023-04-24T15:52:31;9.40;99.90
52439;DHT22;38359;53.150;6.504;2023-04-24T16:02:57;9.50;99.90
52439;DHT22;38359;53.150;6.504;2023-04-24T16:13:23;9.30;99.90
52439;DHT22;38359;53.150;6.504;2023-04-24T16:23:48;9.40;99.90
52439;DHT22;38359;53.150;6.504;2023-04-24T16:34:14;10.10;99.90
52439;DHT22;38359;53.150;6.504;2023-04-24T16:44:41;9.20;99.90
52439;DHT22;38359;53.150;6.504;2023-04-24T16:55:07;9.20;99.90
52439;DHT22;38359;53.150;6.504;2023-04-24T17:05:34;9.20;99.90
52439;DHT22;38359;53.150;6.504;2023-04-24T17:16:00;9.20;99.90
52439;DHT22;38359;53.150;6.504;2023-04-24T17:26:26;8.90;99.90
52439;DHT22;38359;53.150;6.504;2023-04-24T17:36:52;8.90;99.90
52439;DHT22;38359;53.150;6.504;2023-04-24T17:47:18;8.60;99.90
52439;DHT22;38359;53.150;6.504;2023-04-24T17:57:46;8.80;99.90
52439;DHT22;38359;53.150;6.504;2023-04-24T18:08:15;8.90;99.90
52439;DHT22;38359;53.150;6.504;2023-04-24T18:18:41;8.90;99.90
52439;DHT22;38359;53.150;6.504;2023-04-24T18:29:07;8.80;99.90
52439;DHT22;38359;53.150;6.504;2023-04-24T18:39:33;8.60;99.90
52439;DHT22;38359;53.150;6.504;2023-04-24T18:49:58;8.70;99.90
52439;DHT22;38359;53.150;6.504;2023-04-24T19:00:24;8.60;99.90
52439;DHT22;38359;53.150;6.504;2023-04-24T19:10:50;8.60;99.90
52439;DHT22;38359;53.150;6.504;2023-04-24T19:21:16;8.60;99.90
52439;DHT22;38359;53.150;6.504;2023-04-24T19:31:42;8.60;99.90
52439;DHT22;38359;53.150;6.504;2023-04-24T19:42:08;8.60;99.90
52439;DHT22;38359;53.150;6.504;2023-04-24T19:52:34;8.60;99.90
52439;DHT22;38359;53.150;6.504;2023-04-24T20:02:59;8.80;99.90
52439;DHT22;38359;53.150;6.504;2023-04-24T20:13:27;8.50;99.90
52439;DHT22;38359;53.150;6.504;2023-04-24T20:23:52;8.30;99.90
52439;DHT22;38359;53.150;6.504;2023-04-24T20:34:19;8.40;99.90
52439;DHT22;38359;53.150;6.504;2023-04-24T20:44:45;8.70;99.90
52439;DHT22;38359;53.150;6.504;2023-04-24T20:55:11;8.70;99.90
52439;DHT22;38359;53.150;6.504;2023-04-24T21:05:37;8.60;99.90
52439;DHT22;38359;53.150;6.504;2023-04-24T21:16:03;8.60;99.90
52439;DHT22;38359;53.150;6.504;2023-04-24T21:26:29;8.40;99.90
52439;DHT22;38359;53.150;6.504;2023-04-24T21:36:55;8.20;99.90
52439;DHT22;38359;53.150;6.504;2023-04-24T21:47:21;8.10;99.90
52439;DHT22;38359;53.150;6.504;2023-04-24T21:57:47;8.00;99.90
52439;DHT22;38359;53.150;6.504;2023-04-24T22:08:13;7.90;99.90
52439;DHT22;38359;53.150;6.504;2023-04-24T22:18:39;7.90;99.90
52439;DHT22;38359;53.150;6.504;2023-04-24T22:29:05;7.70;99.90
52439;DHT22;38359;53.150;6.504;2023-04-24T22:39:32;7.60;99.90
52439;DHT22;38359;53.150;6.504;2023-04-24T22:49:58;7.60;99.90
52439;DHT22;38359;53.150;6.504;2023-04-24T23:00:24;8.10;99.90
52439;DHT22;38359;53.150;6.504;2023-04-24T23:10:50;7.50;99.90
52439;DHT22;38359;53.150;6.504;2023-04-24T23:21:17;7.40;99.90
52439;DHT22;38359;53.150;6.504;2023-04-24T23:31:43;7.40;99.90
52439;DHT22;38359;53.150;6.504;2023-04-24T23:42:09;7.30;99.90
52439;DHT22;38359;53.150;6.504;2023-04-24T23:52:35;7.30;99.90
